Time;durP1;ratioP1;P1;durP2;ratioP2;P2;SDS_P1;SDS_P2;PMS_P1;PMS_P2;Temp;Humidity;BMP_temperature;BMP_pressure;BME280_temperature;BME280_humidity;BME280_pressure;Samples;Min_cycle;Max_cycle;Signal;HPM_P1;HPM_P2
2023/03/17 00:01:19;;;;;;;3.03;1.58;;;7.00;99.90;;;;;;5091293;28;20043;-73
2023/03/17 00:03:48;;;;;;;4.30;1.70;;;7.00;99.90;;;;;;5091419;28;20578;-73
2023/03/17 00:06:27;;;;;;;6.75;1.80;;;7.10;99.90;;;;;;5074643;28;20583;-73
2023/03/17 00:08:53;;;;;;;3.53;1.25;;;7.00;99.90;;;;;;5091170;28;20162;-73
2023/03/17 00:11:19;;;;;;;3.42;1.23;;;7.10;99.90;;;;;;5091236;28;20123;-73
2023/03/17 00:13:46;;;;;;;2.08;1.23;;;7.10;99.90;;;;;;5091295;28;20448;-73
2023/03/17 00:16:16;;;;;;;3.15;1.40;;;7.10;99.90;;;;;;5091233;28;20403;-73
2023/03/17 00:18:42;;;;;;;2.63;1.58;;;7.10;99.90;;;;;;5093247;28;20055;-73
2023/03/17 00:21:22;;;;;;;2.17;1.40;;;7.10;99.90;;;;;;5095071;28;20504;-73
2023/03/17 00:23:50;;;;;;;2.85;1.40;;;7.10;99.90;;;;;;5095290;28;20047;-73
2023/03/17 00:26:16;;;;;;;3.75;1.65;;;7.00;99.90;;;;;;5094927;28;20036;-73
2023/03/17 00:28:43;;;;;;;2.85;1.63;;;7.10;99.90;;;;;;5077853;28;20032;-73
2023/03/17 00:31:13;;;;;;;2.42;1.50;;;7.00;99.90;;;;;;5094801;28;20449;-73
2023/03/17 00:33:40;;;;;;;3.58;1.10;;;7.00;99.90;;;;;;5094781;28;20076;-73
2023/03/17 00:36:14;;;;;;;3.75;1.80;;;9.50;99.90;;;;;;5095019;28;20040;-73
2023/03/17 00:38:40;;;;;;;3.08;1.35;;;7.00;99.90;;;;;;5094684;28;20119;-73
2023/03/17 00:41:08;;;;;;;2.50;1.58;;;7.00;99.90;;;;;;5094998;28;20079;-73
2023/03/17 00:43:34;;;;;;;2.85;1.52;;;6.80;99.90;;;;;;5094557;28;20044;-73
2023/03/17 00:46:00;;;;;;;2.70;1.38;;;7.10;99.90;;;;;;5094815;28;20075;-73
2023/03/17 00:48:28;;;;;;;2.35;1.60;;;7.10;99.90;;;;;;5094472;28;20036;-73
2023/03/17 00:50:54;;;;;;;2.90;1.60;;;7.10;99.90;;;;;;5094648;28;20480;-73
2023/03/17 00:53:21;;;;;;;2.53;1.30;;;7.10;99.90;;;;;;5094351;28;20044;-74
2023/03/17 00:55:47;;;;;;;2.20;1.50;;;7.10;99.90;;;;;;5094903;28;20032;-73
2023/03/17 00:58:33;;;;;;;1.17;0.93;;;7.10;99.90;;;;;;5094303;28;20036;-73
2023/03/17 01:00:59;;;;;;;1.15;1.05;;;7.10;99.90;;;;;;5094238;28;20036;-73
2023/03/17 01:03:26;;;;;;;3.33;1.42;;;7.10;99.90;;;;;;5094216;28;20591;-73
2023/03/17 01:05:55;;;;;;;3.60;1.60;;;7.10;99.90;;;;;;5094122;28;20044;-73
2023/03/17 01:08:22;;;;;;;2.33;1.60;;;7.10;99.90;;;;;;5093980;28;20411;-73
2023/03/17 01:10:48;;;;;;;2.72;1.48;;;7.10;99.90;;;;;;5094354;28;20044;-73
2023/03/17 01:13:14;;;;;;;3.80;1.60;;;6.90;99.90;;;;;;5094032;28;20399;-73
2023/03/17 01:15:46;;;;;;;1.90;1.20;;;7.10;99.90;;;;;;5093862;28;20038;-73
2023/03/17 01:18:14;;;;;;;3.33;1.70;;;7.10;99.90;;;;;;5077026;28;20066;-73
2023/03/17 01:20:41;;;;;;;5.90;1.63;;;7.10;99.90;;;;;;5094135;28;20093;-73
2023/03/17 01:23:08;;;;;;;2.20;1.33;;;7.00;99.90;;;;;;5077225;28;20044;-73
2023/03/17 01:25:34;;;;;;;1.73;1.10;;;7.00;99.90;;;;;;5093824;28;20050;-73
2023/03/17 01:28:01;;;;;;;3.33;1.17;;;7.00;99.90;;;;;;5093889;28;20071;-73
2023/03/17 01:30:38;;;;;;;2.60;1.20;;;7.00;99.90;;;;;;5093233;28;20047;-73
2023/03/17 01:33:07;;;;;;;4.57;1.10;;;7.00;99.90;;;;;;5093987;28;20036;-73
2023/03/17 01:35:34;;;;;;;3.08;1.63;;;7.00;99.90;;;;;;5093588;28;20079;-73
2023/03/17 01:37:59;;;;;;;3.40;1.67;;;7.00;99.90;;;;;;5093844;28;20040;-73
2023/03/17 01:40:29;;;;;;;3.58;1.65;;;7.00;99.90;;;;;;5093407;28;20122;-73
2023/03/17 01:43:09;;;;;;;2.75;1.50;;;7.00;99.90;;;;;;5093492;28;20077;-73
2023/03/17 01:46:12;;;;;;;2.73;1.43;;;7.10;99.90;;;;;;5093655;28;20587;-73
2023/03/17 01:48:49;;;;;;;2.10;1.30;;;7.10;99.90;;;;;;5093216;28;20298;-73
2023/03/17 01:51:21;;;;;;;2.38;1.50;;;7.10;99.90;;;;;;5093262;28;20407;-73
2023/03/17 01:53:51;;;;;;;3.95;1.60;;;7.10;99.90;;;;;;5093299;28;20511;-73
2023/03/17 01:56:18;;;;;;;2.13;1.30;;;7.10;99.90;;;;;;5093398;28;20090;-73
2023/03/17 01:58:46;;;;;;;2.58;1.40;;;7.00;99.90;;;;;;5093065;28;20082;-73
2023/03/17 02:01:12;;;;;;;2.25;1.50;;;7.10;99.90;;;;;;5076157;28;20047;-73
2023/03/17 02:03:39;;;;;;;1.75;1.45;;;7.10;99.90;;;;;;5093119;28;20056;-73
2023/03/17 02:06:06;;;;;;;1.90;1.42;;;7.10;99.90;;;;;;5092990;28;20052;-73
2023/03/17 02:08:31;;;;;;;1.40;1.02;;;7.10;99.90;;;;;;5092941;28;20152;-73
2023/03/17 02:10:58;;;;;;;3.00;1.35;;;7.10;99.90;;;;;;5093144;28;20068;-73
2023/03/17 02:13:23;;;;;;;4.45;1.67;;;7.10;99.90;;;;;;5075937;28;20040;-73
2023/03/17 02:15:51;;;;;;;2.70;2.30;;;7.10;99.90;;;;;;5075980;28;20391;-73
2023/03/17 02:18:19;;;;;;;2.20;1.33;;;7.10;99.90;;;;;;5093084;28;20036;-73
2023/03/17 02:20:45;;;;;;;2.47;1.70;;;7.10;99.90;;;;;;5076167;28;20050;-73
2023/03/17 02:23:15;;;;;;;1.90;1.40;;;7.50;99.90;;;;;;5093012;28;20048;-73
2023/03/17 02:25:44;;;;;;;2.57;1.20;;;7.00;99.90;;;;;;5092649;28;20080;-73
2023/03/17 02:28:15;;;;;;;4.25;1.42;;;7.00;99.90;;;;;;5092558;28;20122;-73
2023/03/17 02:30:41;;;;;;;2.72;1.65;;;7.00;99.90;;;;;;5092798;28;20042;-73
2023/03/17 02:33:08;;;;;;;2.15;1.45;;;7.00;99.90;;;;;;5092627;28;20051;-73
2023/03/17 02:35:34;;;;;;;6.57;2.38;;;6.90;99.90;;;;;;5075701;28;20491;-73
2023/03/17 02:37:59;;;;;;;3.85;1.77;;;6.90;99.90;;;;;;5092700;28;20083;-73
2023/03/17 02:40:26;;;;;;;2.45;1.50;;;6.80;99.90;;;;;;5091670;28;20036;-73
2023/03/17 02:42:52;;;;;;;2.60;1.58;;;6.80;99.90;;;;;;5092157;28;20439;-73
2023/03/17 02:45:18;;;;;;;2.60;1.65;;;6.90;99.90;;;;;;5092491;28;20040;-73
2023/03/17 02:47:45;;;;;;;2.78;1.67;;;7.60;99.90;;;;;;5092188;28;20093;-73
2023/03/17 02:50:21;;;;;;;4.93;1.95;;;6.90;99.90;;;;;;5092423;28;20499;-73
2023/03/17 02:52:46;;;;;;;3.38;1.70;;;6.90;99.90;;;;;;5092496;28;20077;-73
2023/03/17 02:55:13;;;;;;;2.15;1.33;;;6.90;99.90;;;;;;5092047;28;20108;-73
2023/03/17 02:57:38;;;;;;;3.60;1.65;;;6.90;99.90;;;;;;5092047;28;20040;-73
2023/03/17 03:00:05;;;;;;;2.10;1.17;;;6.90;99.90;;;;;;5092337;28;20047;-73
2023/03/17 03:02:30;;;;;;;2.42;1.48;;;6.90;99.90;;;;;;5091994;28;20043;-73
2023/03/17 03:04:56;;;;;;;4.40;1.55;;;6.90;99.90;;;;;;5074970;28;20056;-73
2023/03/17 03:07:21;;;;;;;3.08;1.73;;;7.00;99.90;;;;;;5091868;28;20076;-73
2023/03/17 03:09:47;;;;;;;2.13;1.35;;;6.90;99.90;;;;;;5092235;28;20498;-73
2023/03/17 03:12:13;;;;;;;1.98;1.10;;;7.00;99.90;;;;;;5091860;28;20036;-73
2023/03/17 03:14:39;;;;;;;3.33;1.60;;;7.00;99.90;;;;;;5075140;28;20515;-73
2023/03/17 03:17:05;;;;;;;4.65;1.67;;;7.00;99.90;;;;;;5091753;28;20123;-73
2023/03/17 03:19:30;;;;;;;2.63;1.45;;;7.00;99.90;;;;;;5092044;28;20502;-73
2023/03/17 03:21:56;;;;;;;2.08;1.45;;;7.00;99.90;;;;;;5091730;28;20040;-73
2023/03/17 03:24:21;;;;;;;4.75;1.48;;;7.00;99.90;;;;;;5074883;28;20123;-73
2023/03/17 03:26:47;;;;;;;3.95;1.85;;;7.00;99.90;;;;;;5091984;28;20507;-73
2023/03/17 03:29:13;;;;;;;4.43;2.10;;;6.90;99.90;;;;;;5091608;28;20119;-73
2023/03/17 03:31:38;;;;;;;2.35;1.48;;;6.90;99.90;;;;;;5091677;28;20046;-73
2023/03/17 03:34:04;;;;;;;3.83;1.42;;;6.90;99.90;;;;;;5074722;28;20036;-73
2023/03/17 03:36:29;;;;;;;2.83;1.40;;;6.90;99.90;;;;;;5091831;28;20056;-73
2023/03/17 03:38:56;;;;;;;3.53;1.70;;;6.90;99.90;;;;;;5091918;28;20127;-73
2023/03/17 03:41:21;;;;;;;3.55;1.77;;;6.90;99.90;;;;;;5091799;28;20044;-73
2023/03/17 03:43:47;;;;;;;3.20;1.60;;;6.90;99.90;;;;;;5091514;28;20048;-73
2023/03/17 03:46:14;;;;;;;5.47;1.90;;;6.80;99.90;;;;;;5091454;28;20052;-73
2023/03/17 03:48:39;;;;;;;2.63;1.50;;;6.90;99.90;;;;;;5091381;28;20044;-73
2023/03/17 03:51:05;;;;;;;2.58;1.75;;;6.80;99.90;;;;;;5091443;28;20036;-73
2023/03/17 03:53:31;;;;;;;2.42;1.60;;;6.90;99.90;;;;;;5094697;28;20496;-73
2023/03/17 03:55:57;;;;;;;2.10;1.35;;;6.90;99.90;;;;;;5078862;28;20112;-73
2023/03/17 03:58:22;;;;;;;2.05;1.50;;;6.90;99.90;;;;;;5095489;28;20082;-73
2023/03/17 04:00:48;;;;;;;2.30;1.40;;;6.90;99.90;;;;;;5095534;28;20046;-73
2023/03/17 04:03:14;;;;;;;2.38;1.58;;;7.00;99.90;;;;;;5098861;28;20441;-73
2023/03/17 04:05:40;;;;;;;2.17;1.55;;;6.90;99.90;;;;;;5098694;28;20039;-73
2023/03/17 04:08:06;;;;;;;3.40;1.95;;;7.00;99.90;;;;;;5098602;28;20116;-73
2023/03/17 04:10:32;;;;;;;2.22;1.50;;;7.00;99.90;;;;;;5098927;28;20070;-73
2023/03/17 04:12:58;;;;;;;3.03;1.73;;;6.90;99.90;;;;;;5098502;28;20067;-73
2023/03/17 04:15:24;;;;;;;5.43;1.50;;;6.90;99.90;;;;;;5098790;28;20061;-73
2023/03/17 04:17:49;;;;;;;2.28;1.50;;;6.90;99.90;;;;;;5098435;28;20040;-73
2023/03/17 04:20:16;;;;;;;3.42;1.75;;;6.90;99.90;;;;;;5081831;28;20069;-73
2023/03/17 04:22:43;;;;;;;3.15;1.73;;;6.80;99.90;;;;;;5081608;28;20138;-73
2023/03/17 04:25:10;;;;;;;2.88;1.92;;;6.80;99.90;;;;;;5081483;28;20122;-73
2023/03/17 04:27:36;;;;;;;1.90;1.48;;;6.80;99.90;;;;;;5081445;28;20123;-73
2023/03/17 04:30:03;;;;;;;3.40;2.03;;;6.80;99.90;;;;;;5098266;28;20075;-73
2023/03/17 04:32:28;;;;;;;2.22;1.60;;;6.80;99.90;;;;;;5098377;28;20092;-73
2023/03/17 04:34:54;;;;;;;3.35;1.73;;;6.80;99.90;;;;;;5081270;28;20039;-73
2023/03/17 04:37:20;;;;;;;5.10;1.98;;;6.80;99.90;;;;;;5098035;28;20043;-73
2023/03/17 04:39:46;;;;;;;2.95;1.65;;;6.80;99.90;;;;;;5097987;28;20077;-73
2023/03/17 04:42:12;;;;;;;3.72;1.90;;;6.70;99.90;;;;;;5098195;28;20063;-73
2023/03/17 04:44:37;;;;;;;3.47;2.00;;;6.70;99.90;;;;;;5097952;28;20062;-73
2023/03/17 04:47:03;;;;;;;2.40;1.65;;;6.70;99.90;;;;;;5097876;28;20051;-73
2023/03/17 04:49:28;;;;;;;3.47;1.98;;;6.70;99.90;;;;;;5098166;28;20038;-73
2023/03/17 04:51:54;;;;;;;1.85;1.38;;;6.70;99.90;;;;;;5097889;28;20040;-73
2023/03/17 04:54:20;;;;;;;5.25;2.15;;;6.70;99.90;;;;;;5097702;28;20035;-73
2023/03/17 04:56:46;;;;;;;3.55;1.55;;;6.70;99.90;;;;;;5097813;28;20032;-73
2023/03/17 04:59:11;;;;;;;3.63;1.83;;;6.70;99.90;;;;;;5097685;28;20506;-73
2023/03/17 05:01:37;;;;;;;1.08;0.98;;;6.70;99.90;;;;;;5080786;28;20042;-73
2023/03/17 05:04:03;;;;;;;3.45;1.83;;;6.70;99.90;;;;;;5096669;28;20055;-73
2023/03/17 05:06:29;;;;;;;3.00;1.70;;;7.20;99.90;;;;;;5097553;28;20561;-73
2023/03/17 05:08:55;;;;;;;2.55;1.65;;;6.70;99.90;;;;;;5097449;28;20039;-73
2023/03/17 05:11:20;;;;;;;3.13;1.67;;;6.70;99.90;;;;;;5080860;28;20085;-73
2023/03/17 05:13:46;;;;;;;2.60;1.83;;;6.70;99.90;;;;;;5080595;28;20032;-73
2023/03/17 05:16:12;;;;;;;2.58;1.63;;;6.70;99.90;;;;;;5097510;28;20554;-73
2023/03/17 05:18:38;;;;;;;4.25;1.60;;;6.70;99.90;;;;;;5080728;28;20039;-73
2023/03/17 05:21:06;;;;;;;8.02;1.73;;;6.70;99.90;;;;;;5080439;28;20036;-73
2023/03/17 05:23:32;;;;;;;2.20;1.38;;;6.70;99.90;;;;;;5097161;28;20406;-73
2023/03/17 05:25:58;;;;;;;2.72;1.52;;;6.70;99.90;;;;;;5097155;28;20043;-73
2023/03/17 05:28:25;;;;;;;3.00;1.85;;;6.70;99.90;;;;;;5097146;28;20506;-73
2023/03/17 05:30:52;;;;;;;1.77;1.10;;;6.70;99.90;;;;;;5097092;28;20093;-73
2023/03/17 05:33:19;;;;;;;2.92;1.50;;;6.70;99.90;;;;;;5097191;28;20036;-73
2023/03/17 05:35:45;;;;;;;3.28;1.67;;;6.70;99.90;;;;;;5097235;28;20031;-73
2023/03/17 05:38:11;;;;;;;2.95;1.42;;;6.80;99.90;;;;;;5096955;28;20122;-73
2023/03/17 05:40:37;;;;;;;1.35;1.15;;;6.70;99.90;;;;;;5096814;28;20402;-73
2023/03/17 05:43:04;;;;;;;4.97;1.83;;;6.80;99.90;;;;;;5096842;28;20152;-73
2023/03/17 05:45:30;;;;;;;2.72;1.60;;;6.80;99.90;;;;;;5096748;28;20425;-73
2023/03/17 05:47:56;;;;;;;1.98;1.77;;;6.90;99.90;;;;;;5096892;28;20040;-73
2023/03/17 05:50:22;;;;;;;2.47;1.73;;;6.90;99.90;;;;;;5096596;28;20047;-73
2023/03/17 05:52:48;;;;;;;4.00;1.63;;;6.90;99.90;;;;;;5096606;28;20036;-73
2023/03/17 05:55:14;;;;;;;1.90;1.25;;;6.90;99.90;;;;;;5096906;28;20074;-73
2023/03/17 05:57:40;;;;;;;2.92;1.50;;;6.90;99.90;;;;;;5080002;28;20038;-73
2023/03/17 06:00:07;;;;;;;3.47;1.73;;;7.00;99.90;;;;;;5096475;28;20039;-73
2023/03/17 06:02:34;;;;;;;3.55;2.10;;;6.90;99.90;;;;;;5079573;28;20403;-73
2023/03/17 06:04:59;;;;;;;2.40;1.65;;;6.80;99.90;;;;;;5079404;28;20059;-73
2023/03/17 06:07:25;;;;;;;2.90;1.33;;;7.70;99.90;;;;;;5096290;28;20050;-73
2023/03/17 06:09:51;;;;;;;3.83;1.70;;;7.00;99.90;;;;;;5096728;28;20510;-74
2023/03/17 06:12:17;;;;;;;2.60;1.30;;;7.00;99.90;;;;;;5079371;28;20036;-73
2023/03/17 06:14:44;;;;;;;4.32;1.67;;;7.30;99.90;;;;;;5096094;28;20043;-74
2023/03/17 06:17:11;;;;;;;1.75;1.35;;;7.10;99.90;;;;;;5096049;28;20400;-74
2023/03/17 06:19:37;;;;;;;2.65;1.85;;;7.50;99.90;;;;;;5079310;28;20513;-74
2023/03/17 06:22:02;;;;;;;4.03;1.70;;;9.00;99.90;;;;;;5096222;28;20126;-75
2023/03/17 06:24:28;;;;;;;2.65;1.70;;;8.70;99.90;;;;;;5114193;28;20040;-75
2023/03/17 06:26:54;;;;;;;1.75;1.15;;;8.70;99.90;;;;;;5113994;28;20085;-75
2023/03/17 06:29:21;;;;;;;1.73;1.15;;;8.20;99.90;;;;;;5095863;28;20036;-74
2023/03/17 06:31:49;;;;;;;4.03;1.63;;;6.60;99.90;;;;;;5096094;28;20479;-74
2023/03/17 06:34:20;;;;;;;1.55;1.20;;;7.40;99.90;;;;;;5114221;28;20046;-74
2023/03/17 06:36:45;;;;;;;3.33;1.75;;;9.20;99.90;;;;;;5114255;28;20054;-74
2023/03/17 06:39:12;;;;;;;3.92;1.48;;;9.20;99.90;;;;;;5078738;28;20387;-74
2023/03/17 06:41:37;;;;;;;2.97;1.40;;;7.40;99.90;;;;;;5095529;28;20035;-74
2023/03/17 06:44:06;;;;;;;3.22;1.50;;;7.20;99.90;;;;;;5078734;28;20043;-76
2023/03/17 06:46:31;;;;;;;2.70;1.13;;;7.90;99.90;;;;;;5095921;28;20032;-75
2023/03/17 06:48:58;;;;;;;2.05;1.42;;;9.50;99.90;;;;;;5095502;28;20521;-75
2023/03/17 06:51:24;;;;;;;2.00;1.30;;;7.90;99.90;;;;;;5113905;28;20507;-75
2023/03/17 06:53:50;;;;;;;2.30;1.25;;;8.00;99.90;;;;;;5095777;28;20047;-75
2023/03/17 06:56:16;;;;;;;2.15;1.30;;;7.70;99.90;;;;;;5113871;28;20031;-75
2023/03/17 06:58:42;;;;;;;3.53;1.30;;;10.60;99.90;;;;;;5113591;28;20039;-75
2023/03/17 07:01:08;;;;;;;1.95;1.30;;;10.20;99.90;;;;;;5113576;28;20490;-79
2023/03/17 07:03:34;;;;;;;2.42;1.20;;;7.50;99.90;;;;;;5113293;28;20083;-75
2023/03/17 07:06:00;;;;;;;2.30;1.52;;;7.90;99.90;;;;;;5113682;28;20040;-76
2023/03/17 07:08:29;;;;;;;3.90;1.83;;;8.00;99.90;;;;;;5095045;28;20036;-76
2023/03/17 07:10:56;;;;;;;1.98;1.35;;;9.50;99.90;;;;;;5095096;28;20042;-79
2023/03/17 07:13:34;;;;;;;3.00;1.55;;;9.20;99.90;;;;;;5096580;28;20114;-78
2023/03/17 07:16:01;;;;;;;3.80;2.25;;;8.00;99.90;;;;;;5095156;28;20115;-74
2023/03/17 07:18:30;;;;;;;1.85;1.40;;;7.90;99.90;;;;;;5095719;28;20483;-74
2023/03/17 07:20:57;;;;;;;2.25;1.23;;;10.40;99.90;;;;;;5095089;28;20725;-74
2023/03/17 07:23:23;;;;;;;1.88;1.13;;;7.80;99.90;;;;;;5095051;28;20075;-73
2023/03/17 07:25:49;;;;;;;2.30;1.40;;;9.20;99.90;;;;;;5094961;28;20078;-74
2023/03/17 07:28:15;;;;;;;2.05;1.48;;;8.20;99.90;;;;;;5112935;28;20050;-74
2023/03/17 07:30:45;;;;;;;2.13;1.38;;;11.10;99.90;;;;;;5095119;28;20074;-74
2023/03/17 07:33:12;;;;;;;3.78;1.58;;;8.50;99.90;;;;;;5094990;28;20120;-74
2023/03/17 07:35:38;;;;;;;2.78;1.58;;;10.30;99.90;;;;;;5113080;28;20383;-74
2023/03/17 07:38:04;;;;;;;2.28;1.33;;;8.50;99.90;;;;;;5095037;28;20062;-73
2023/03/17 07:40:31;;;;;;;2.50;1.20;;;8.70;99.90;;;;;;5095319;28;20047;-74
2023/03/17 07:42:57;;;;;;;2.45;1.40;;;8.90;99.90;;;;;;5078150;28;20360;-73
2023/03/17 07:45:23;;;;;;;1.27;1.00;;;9.90;99.90;;;;;;5113237;28;20038;-74
2023/03/17 07:47:48;;;;;;;2.05;1.42;;;11.50;99.90;;;;;;5113179;28;20035;-74
2023/03/17 07:50:14;;;;;;;1.63;1.10;;;9.50;99.90;;;;;;5112943;28;20057;-74
2023/03/17 07:52:41;;;;;;;3.88;1.35;;;9.70;99.90;;;;;;5112892;28;20071;-74
2023/03/17 07:55:09;;;;;;;2.95;1.30;;;12.10;99.90;;;;;;5094675;28;20094;-74
2023/03/17 07:57:36;;;;;;;3.30;1.40;;;9.80;99.90;;;;;;5113075;28;20441;-74
2023/03/17 08:00:03;;;;;;;3.13;1.48;;;10.90;99.90;;;;;;5112821;28;20092;-73
2023/03/17 08:02:30;;;;;;;2.22;1.60;;;9.70;99.90;;;;;;5112984;28;20126;-73
2023/03/17 08:04:56;;;;;;;3.40;1.65;;;9.80;99.90;;;;;;5094326;28;20466;-74
2023/03/17 08:07:21;;;;;;;3.20;1.67;;;11.10;99.90;;;;;;5113042;28;20075;-74
2023/03/17 08:09:47;;;;;;;2.05;1.55;;;9.70;99.90;;;;;;5094799;28;20043;-74
2023/03/17 08:12:13;;;;;;;3.17;1.27;;;11.90;99.90;;;;;;5094679;28;20039;-75
2023/03/17 08:14:40;;;;;;;2.67;1.40;;;9.80;99.90;;;;;;5094510;28;20403;-75
2023/03/17 08:17:06;;;;;;;2.55;1.20;;;11.70;99.90;;;;;;5077742;28;20390;-76
2023/03/17 08:19:32;;;;;;;2.00;1.30;;;10.00;99.90;;;;;;5094511;28;20088;-75
2023/03/17 08:21:57;;;;;;;3.63;1.63;;;12.00;99.90;;;;;;5077914;28;20130;-76
2023/03/17 08:24:23;;;;;;;1.85;1.10;;;10.00;99.90;;;;;;5094400;28;20042;-76
2023/03/17 08:26:49;;;;;;;2.13;1.40;;;11.00;99.90;;;;;;5077592;28;20047;-76
2023/03/17 08:29:14;;;;;;;1.20;1.10;;;12.10;99.90;;;;;;5094362;28;20499;-76
2023/03/17 08:31:41;;;;;;;2.53;1.08;;;11.20;99.90;;;;;;5094310;28;20436;-76
2023/03/17 08:34:07;;;;;;;2.00;1.27;;;12.40;99.90;;;;;;5094269;28;20039;-76
2023/03/17 08:36:33;;;;;;;3.00;1.08;;;12.50;99.90;;;;;;5077429;28;20039;-76
2023/03/17 08:38:58;;;;;;;2.78;1.63;;;10.30;99.90;;;;;;5094909;28;20039;-75
2023/03/17 08:41:27;;;;;;;2.00;1.30;;;10.40;99.90;;;;;;5097983;28;20040;-76
2023/03/17 08:43:53;;;;;;;2.75;1.30;;;10.50;99.90;;;;;;5097926;28;20054;-76
2023/03/17 08:46:28;;;;;;;3.58;1.55;;;10.60;99.90;;;;;;5116156;28;20101;-76
2023/03/17 08:48:55;;;;;;;2.63;1.55;;;13.20;99.90;;;;;;5116321;28;20383;-76
2023/03/17 08:51:27;;;;;;;2.20;1.25;;;12.80;99.90;;;;;;5116293;28;20038;-76
2023/03/17 08:53:54;;;;;;;2.03;1.52;;;10.70;99.90;;;;;;5116082;28;20108;-76
2023/03/17 08:56:20;;;;;;;2.95;1.42;;;13.50;99.90;;;;;;5116263;28;20081;-77
2023/03/17 08:58:46;;;;;;;2.42;1.30;;;12.90;99.90;;;;;;5116227;28;20403;-76
2023/03/17 09:01:12;;;;;;;2.45;1.52;;;11.50;99.90;;;;;;5097627;28;20036;-76
2023/03/17 09:03:39;;;;;;;2.70;1.38;;;11.20;99.90;;;;;;5097369;28;20061;-76
2023/03/17 09:06:07;;;;;;;3.53;1.48;;;13.90;99.90;;;;;;5097482;28;20107;-76
2023/03/17 09:08:34;;;;;;;2.28;1.58;;;11.30;99.90;;;;;;5097222;28;20483;-76
2023/03/17 09:11:04;;;;;;;2.63;1.48;;;13.90;99.90;;;;;;5115653;28;20041;-76
2023/03/17 09:13:29;;;;;;;2.90;1.67;;;11.30;99.90;;;;;;5115574;28;20084;-76
2023/03/17 09:15:55;;;;;;;3.47;1.80;;;12.20;99.90;;;;;;5115861;28;20040;-76
2023/03/17 09:18:21;;;;;;;5.40;1.38;;;11.20;99.90;;;;;;5115518;28;20135;-76
2023/03/17 09:20:48;;;;;;;3.17;1.55;;;13.70;99.90;;;;;;5079480;28;20131;-76
2023/03/17 09:23:14;;;;;;;4.18;2.10;;;11.40;99.90;;;;;;5115612;28;20398;-75
2023/03/17 09:25:41;;;;;;;2.70;1.48;;;13.70;99.90;;;;;;5115466;28;20038;-76
2023/03/17 09:28:07;;;;;;;2.30;1.40;;;13.90;99.90;;;;;;5097315;28;20097;-76
2023/03/17 09:30:33;;;;;;;4.28;1.70;;;13.60;99.90;;;;;;5097350;28;20122;-76
2023/03/17 09:32:59;;;;;;;4.50;1.98;;;12.70;99.90;;;;;;5080209;28;20043;-79
2023/03/17 09:35:30;;;;;;;2.85;1.70;;;11.80;99.90;;;;;;5097520;28;20435;-82
2023/03/17 09:37:56;;;;;;;3.45;1.90;;;11.90;99.90;;;;;;5097413;28;20130;-87
2023/03/17 09:40:27;;;;;;;3.53;1.75;;;12.00;99.90;;;;;;5081069;28;20071;-80
2023/03/17 09:43:18;;;;;;;3.63;1.55;;;12.10;99.90;;;;;;5096843;28;20042;-78
2023/03/17 09:45:44;;;;;;;4.10;1.75;;;12.30;99.90;;;;;;5097059;28;20084;-80
2023/03/17 09:48:32;;;;;;;2.03;1.40;;;13.60;99.90;;;;;;5098384;28;20428;-80
2023/03/17 09:51:09;;;;;;;2.70;1.60;;;12.60;99.90;;;;;;5097361;28;20040;-78
2023/03/17 09:53:45;;;;;;;2.95;2.00;;;12.80;99.90;;;;;;5096839;28;20036;-81
2023/03/17 09:56:13;;;;;;;4.13;2.03;;;13.00;99.90;;;;;;5096944;28;20089;-81
2023/03/17 09:58:41;;;;;;;4.93;2.10;;;13.20;99.90;;;;;;5096538;28;20071;-81
2023/03/17 10:01:09;;;;;;;2.60;1.50;;;13.30;99.90;;;;;;5096821;28;20044;-82
2023/03/17 10:03:36;;;;;;;2.25;1.63;;;13.50;99.90;;;;;;5096392;28;20127;-80
2023/03/17 10:06:32;;;;;;;4.45;1.88;;;13.60;99.90;;;;;;5080739;28;20487;-81
2023/03/17 10:09:17;;;;;;;3.50;1.25;;;13.70;99.90;;;;;;5097219;28;20592;-78
2023/03/17 10:11:47;;;;;;;2.40;1.10;;;13.90;99.90;;;;;;5096470;28;20403;-75
2023/03/17 10:14:34;;;;;;;3.65;2.15;;;13.90;99.90;;;;;;5096339;28;20114;-75
2023/03/17 10:17:30;;;;;;;3.38;1.80;;;14.10;99.90;;;;;;5096504;28;20054;-75
2023/03/17 10:20:05;;;;;;;3.53;1.60;;;14.20;99.90;;;;;;5096156;28;20036;-80
2023/03/17 10:22:46;;;;;;;3.38;2.00;;;14.50;99.90;;;;;;5096105;28;20461;-74
2023/03/17 10:25:21;;;;;;;4.00;1.92;;;15.80;99.90;;;;;;5096435;28;20039;-75
2023/03/17 10:28:17;;;;;;;3.10;1.77;;;14.50;99.90;;;;;;5096153;28;20078;-75
2023/03/17 10:30:43;;;;;;;3.60;1.95;;;14.60;99.90;;;;;;5089353;28;20054;-82
2023/03/17 10:33:09;;;;;;;4.82;2.28;;;14.50;99.90;;;;;;5096237;28;20044;-75
2023/03/17 10:35:38;;;;;;;3.35;1.98;;;14.60;99.90;;;;;;5095693;28;20128;-79
2023/03/17 10:38:19;;;;;;;3.70;1.60;;;14.70;99.90;;;;;;5079219;28;20035;-76
2023/03/17 10:40:57;;;;;;;3.08;1.90;;;14.80;99.90;;;;;;5079163;28;20042;-77
2023/03/17 10:43:28;;;;;;;3.78;1.90;;;14.80;99.90;;;;;;5095894;28;20440;-80
2023/03/17 10:46:01;;;;;;;3.85;1.83;;;14.80;99.90;;;;;;5096050;28;20036;-78
2023/03/17 10:48:29;;;;;;;4.55;2.00;;;14.70;99.90;;;;;;5078695;28;20475;-75
2023/03/17 10:50:57;;;;;;;3.65;2.00;;;14.70;99.90;;;;;;5095899;28;20086;-80
2023/03/17 10:53:26;;;;;;;3.58;2.10;;;14.80;99.90;;;;;;5078714;28;20118;-80
2023/03/17 10:56:13;;;;;;;4.57;2.10;;;15.90;99.90;;;;;;5078703;28;20067;-75
2023/03/17 10:58:47;;;;;;;3.33;2.08;;;15.10;99.90;;;;;;5081918;28;20134;-80
2023/03/17 11:01:20;;;;;;;3.60;1.70;;;15.00;99.90;;;;;;5095852;28;20475;-76
2023/03/17 11:03:47;;;;;;;2.50;1.75;;;15.10;99.90;;;;;;5095509;28;20059;-76
2023/03/17 11:06:17;;;;;;;5.68;2.35;;;15.10;99.90;;;;;;5095357;28;20051;-75
2023/03/17 11:08:54;;;;;;;5.68;2.25;;;16.50;99.90;;;;;;5095141;28;20040;-76
2023/03/17 11:11:32;;;;;;;4.18;2.35;;;15.00;99.90;;;;;;5078797;28;20126;-77
2023/03/17 11:14:04;;;;;;;3.47;1.63;;;15.10;99.90;;;;;;5095567;28;20047;-76
2023/03/17 11:16:36;;;;;;;3.35;2.20;;;15.30;99.90;;;;;;5113922;28;20058;-77
2023/03/17 11:19:04;;;;;;;2.95;2.03;;;15.20;99.90;;;;;;5113382;28;20044;-76
2023/03/17 11:21:49;;;;;;;3.45;1.70;;;15.70;99.90;;;;;;5114872;28;20491;-75
2023/03/17 11:24:19;;;;;;;3.80;2.05;;;15.10;99.90;;;;;;5114940;28;20036;-76
2023/03/17 11:27:14;;;;;;;2.65;1.58;;;17.60;99.90;;;;;;5113348;28;20067;-76
2023/03/17 11:29:49;;;;;;;2.60;1.70;;;15.50;99.90;;;;;;5113253;28;20035;-76
2023/03/17 11:32:27;;;;;;;6.55;2.38;;;15.50;99.90;;;;;;5113295;28;20039;-76
2023/03/17 11:34:58;;;;;;;3.75;2.20;;;15.50;99.90;;;;;;5113328;28;20077;-76
2023/03/17 11:37:26;;;;;;;4.53;2.15;;;15.70;99.90;;;;;;5113069;28;20043;-76
2023/03/17 11:40:16;;;;;;;4.72;2.28;;;15.90;99.90;;;;;;5094792;28;20096;-77
2023/03/17 11:43:13;;;;;;;3.35;1.60;;;16.20;99.90;;;;;;5077963;28;20044;-76
2023/03/17 11:46:12;;;;;;;5.13;2.55;;;16.60;99.90;;;;;;5113215;28;20047;-76
2023/03/17 11:49:05;;;;;;;4.13;2.15;;;16.60;99.90;;;;;;5113209;28;20376;-77
2023/03/17 11:51:55;;;;;;;3.22;1.95;;;16.90;99.90;;;;;;5094737;28;20127;-77
2023/03/17 11:54:45;;;;;;;4.53;1.80;;;17.10;99.90;;;;;;5094712;28;20044;-77
2023/03/17 11:57:24;;;;;;;3.38;1.95;;;17.60;99.90;;;;;;5078372;28;20036;-76
2023/03/17 11:59:56;;;;;;;10.45;2.38;;;;;;;;;;5077986;28;20425;-77
2023/03/17 12:02:27;;;;;;;4.22;1.90;;;17.60;1.00;;;;;;5112535;28;20047;-76
2023/03/17 12:04:54;;;;;;;;;;;17.60;1.00;;;;;;5113666;28;20407;-77
2023/03/17 12:07:31;;;;;;;3.70;1.70;;;17.90;3.40;;;;;;5113400;28;20362;-76
2023/03/17 12:10:07;;;;;;;2.47;1.75;;;17.90;1.00;;;;;;5113299;28;20089;-76
2023/03/17 12:12:37;;;;;;;4.55;2.05;;;;;;;;;;5113202;28;20039;-76
2023/03/17 12:15:10;;;;;;;3.47;2.28;;;18.00;1.00;;;;;;5117535;28;20150;-75
2023/03/17 12:17:51;;;;;;;5.65;2.03;;;18.00;99.90;;;;;;5099233;28;20395;-74
2023/03/17 12:20:36;;;;;;;3.38;1.77;;;18.10;99.90;;;;;;5082123;28;20083;-76
2023/03/17 12:23:38;;;;;;;4.88;1.65;;;19.30;1.00;;;;;;5116603;28;20051;-75
2023/03/17 12:26:07;;;;;;;3.38;2.00;;;18.10;99.90;;;;;;5116589;28;20071;-76
2023/03/17 12:29:14;;;;;;;5.20;2.35;;;17.90;99.90;;;;;;5098385;28;20044;-76
2023/03/17 12:31:58;;;;;;;2.58;1.42;;;17.80;99.90;;;;;;5049983;28;20075;-76
2023/03/17 12:34:35;;;;;;;6.03;2.40;;;17.90;99.90;;;;;;5098285;28;20035;-76
2023/03/17 12:37:01;;;;;;;6.65;2.45;;;18.70;99.90;;;;;;5098905;28;20460;-73
2023/03/17 12:39:33;;;;;;;5.00;2.10;;;17.90;99.90;;;;;;5116236;28;20127;-75
2023/03/17 12:42:06;;;;;;;3.33;2.05;;;17.90;99.90;;;;;;5098207;28;20040;-75
2023/03/17 12:44:55;;;;;;;4.22;1.95;;;18.00;99.90;;;;;;5097968;28;20497;-75
2023/03/17 12:47:57;;;;;;;3.55;1.98;;;17.90;99.90;;;;;;5080714;28;20047;-74
2023/03/17 12:51:05;;;;;;;5.82;2.45;;;17.80;99.90;;;;;;5081099;28;20038;-74
2023/03/17 12:53:50;;;;;;;4.03;2.17;;;17.50;99.90;;;;;;5070363;28;20131;-73
2023/03/17 12:56:24;;;;;;;3.47;1.60;;;19.20;99.90;;;;;;5080849;28;20550;-74
2023/03/17 12:59:00;;;;;;;4.22;2.22;;;19.50;99.90;;;;;;5115522;28;20039;-75
2023/03/17 13:01:36;;;;;;;4.65;1.90;;;17.00;99.90;;;;;;5097419;28;20082;-75
2023/03/17 13:04:45;;;;;;;5.28;2.42;;;17.00;99.90;;;;;;5115851;28;20065;-75
2023/03/17 13:07:21;;;;;;;3.50;2.25;;;17.00;99.90;;;;;;5086539;28;20564;-75